• Join FlightAware (Why Join?)
  • Login
  • US Flag 
12:50PM EDT


 

Airport Tracker/Info


-or-


 

Live Flight TrackerFlight Track Log ✈ QFA1050 ✈ 05-09-2013 ✈ YMML / MEL - YBRM / BME

Flight Track Log - Related Links

Times and Time Zones

All times are in EDT time to prevent confusion due to time zone crossing. See the QFA1050 flight status page for this flight to view local times or setup timezone preferences in your user account.

Time Position Orientation Groundspeed Altitude Reporting Facility
EDT Latitude Longitude Course Direction KTS MPH feet Rate Location/Type
07:32PM -37.6595 144.8107 262° West 141 162 1,400  Level Aus ATC (RADAR)
07:32PM -37.6600 144.8060 275° West 163 188 1,200 960 Descending FlightAware
07:32PM -37.6580 144.7860 277° West 180 207 1,800 1,860 Climbing FlightAware
07:33PM -37.6570 144.7580 273° West 213 245 2,600 2,520 Climbing FlightAware
07:33PM -37.6560 144.7320 273° West 213 245 3,700 3,600 Climbing FlightAware
07:33PM -37.6540 144.7120 277° West 212 244 4,700 3,600 Climbing FlightAware
07:33PM -37.6530 144.7060 282° West 212 244 4,900 3,300 Climbing FlightAware
07:34PM -37.6510 144.6890 278° West 209 241 5,800 3,420 Climbing FlightAware
07:34PM -37.6500 144.6640 273° West 212 244 6,900 2,400 Climbing FlightAware
07:34PM -37.6480 144.6450 278° West 236 272 7,200 1,500 Climbing FlightAware
07:34PM -37.6470 144.6380 280° West 239 275 7,400 2,400 Climbing FlightAware
07:34PM -37.6430 144.6310 306° West 243 280 7,600 2,580 Climbing FlightAware
07:35PM -37.6350 144.6220 318° Northwest 248 285 8,100 3,120 Climbing FlightAware
07:35PM -37.6250 144.6140 328° Northwest 249 287 8,700 3,300 Climbing FlightAware
07:35PM -37.5930 144.5890 328° Northwest 252 290 10,600 2,040 Climbing FlightAware
07:36PM -37.5490 144.5540 328° Northwest 305 351 11,300 1,860 Climbing FlightAware
07:37PM -37.5090 144.5240 329° Northwest 311 358 12,800 3,420 Climbing FlightAware
07:37PM -37.4673 144.4916 329° Northwest 298 343 15,000 3,300 Climbing Aus ATC (RADAR)
07:37PM -37.4600 144.4860 329° Northwest 311 358 15,000 2,280 Level FlightAware
07:38PM -37.4220 144.4570 329° Northwest 316 364 16,400 2,580 Climbing FlightAware
07:38PM -37.3780 144.4220 328° Northwest 329 379 17,800 2,160 Climbing FlightAware
07:39PM -37.3320 144.3860 328° Northwest 338 389 19,000 1,860 Climbing FlightAware
07:40PM -37.2423 144.3171 328° Northwest 358 412 20,900 1,440 Climbing Aus ATC (RADAR)
07:41PM -37.1658 144.2581 328° Northwest 387 445 21,700 1,440 Climbing Aus ATC (RADAR)
07:42PM -37.0625 144.1784 328° Northwest 400 460 23,700 1,740 Climbing Aus ATC (RADAR)
07:42PM -37.0139 144.1414 329° Northwest 403 464 24,500 2,400 Climbing Aus ATC (RADAR)
07:43PM -36.9586 144.0990 329° Northwest 396 456 26,300 2,520 Climbing Aus ATC (RADAR)
07:44PM -36.9053 144.0583 329° Northwest 382 440 27,500 1,260 Climbing Aus ATC (RADAR)
07:44PM -36.8501 144.0174 329° Northwest 392 451 27,800 1,020 Climbing Aus ATC (RADAR)
07:45PM -36.7505 143.9122 320° Northwest 396 456 29,300 900 Climbing Aus ATC (RADAR)
07:47PM -36.6438 143.7585 311° West 387 445 30,300 480 Climbing Aus ATC (RADAR)
07:47PM -36.6019 143.6987 311° West 391 450 30,300  Level Aus ATC (RADAR)
07:48PM -36.5416 143.6129 311° West 392 451 30,300  Level Aus ATC (RADAR)
07:49PM -36.4801 143.5264 311° West 399 459 30,300  Level Aus ATC (RADAR)
07:50PM -36.4369 143.4648 311° West 401 461 30,300  Level Aus ATC (RADAR)
07:50PM -36.3739 143.3779 312° West 404 465 30,300  Level Aus ATC (RADAR)
07:52PM -36.2485 143.2021 311° West 408 470 30,300  Level Aus ATC (RADAR)
07:53PM -36.1724 143.0965 312° West 409 471 30,300  Level Aus ATC (RADAR)
07:54PM -36.1158 143.0174 312° West 407 468 30,300  Level Aus ATC (RADAR)
07:55PM -36.0665 142.9469 311° West 405 466 30,300  Level Aus ATC (RADAR)
07:55PM -36.0040 142.8599 312° West 405 466 30,300  Level Aus ATC (RADAR)
07:57PM -35.8979 142.7131 312° West 402 463 30,300  Level Aus ATC (RADAR)
07:57PM -35.8601 142.6616 312° West 402 463 30,300  Level Aus ATC (RADAR)
07:58PM -35.7981 142.5755 312° West 401 461 30,300 -360 Level Aus ATC (RADAR)
07:58PM -35.8120 142.5920 312° West 399 459 30,000 -480 Descending FlightAware
07:59PM -35.7700 142.5350 312° West 398 458 30,000  Level FlightAware
08:00PM -35.7140 142.4580 312° West 397 457 30,000 540 Level FlightAware
08:00PM -35.6924 142.4306 312° West 400 460 30,400  Climbing Aus ATC (RADAR)
08:00PM -35.6690 142.3960 312° West 293 337 30,000  Descending FlightAware
08:00PM -35.6360 142.3543 312° West 401 461 30,400 660 Climbing Aus ATC (RADAR)
08:01PM -35.6047 142.3110 312° West 399 459 30,400 -900 Level Aus ATC (RADAR)
08:01PM -35.6260 142.3380 312° West 404 465 30,000  Descending FlightAware
08:01PM -35.5609 142.2511 312° West 402 463 30,400  Climbing Aus ATC (RADAR)
08:02PM -35.5640 142.2530 312° West 405 466 30,000  Descending FlightAware
08:02PM -35.4920 142.1572 312° West 405 466 30,400  Climbing Aus ATC (RADAR)
08:02PM -35.4890 142.1510 312° West 407 468 30,000 -600 Descending FlightAware
08:03PM -35.4400 142.0850 312° West 409 471 30,000  Level FlightAware
08:03PM -35.3980 142.0270 312° West 411 473 30,000 300 Level FlightAware
08:04PM -35.3525 141.9681 312° West 409 471 30,400  Climbing Aus ATC (RADAR)
08:04PM -35.3540 141.9690 312° West 413 475 30,000  Descending FlightAware
08:05PM -35.3081 141.9074 312° West 409 471 30,400  Climbing Aus ATC (RADAR)
08:05PM -35.2950 141.8890 312° West 413 475 30,000 -600 Descending FlightAware
08:05PM -35.2560 141.8370 313° West 413 475 30,000 360 Level FlightAware
08:06PM -35.2116 141.7781 313° West 413 475 30,400  Climbing Aus ATC (RADAR)
08:06PM -35.2120 141.7770 313° West 413 475 30,000  Descending FlightAware
08:06PM -35.1668 141.7173 313° West 413 475 30,400  Climbing Aus ATC (RADAR)
08:07PM -35.1540 141.6990 313° West 415 478 30,000 -480 Descending FlightAware
08:07PM -35.1060 141.6340 312° West 415 478 30,000  Level FlightAware
08:08PM -35.0550 141.5670 312° West 415 478 30,000 660 Level FlightAware
08:08PM -35.0510 141.5620 312° West 412 474 30,400 600 Climbing Aus ATC (RADAR)
08:09PM -35.0056 141.5019 312° West 413 475 30,400 -660 Level Aus ATC (RADAR)
08:09PM -35.0040 141.4990 312° West 414 476 30,000 -780 Descending FlightAware
08:09PM -34.9640 141.4460 313° West 414 476 30,000  Level FlightAware
08:10PM -34.9210 141.3890 313° West 413 475 30,000  Level FlightAware
08:10PM -34.8770 141.3300 312° West 412 474 30,000  Level FlightAware
08:11PM -34.8320 141.2700 312° West 412 474 30,000  Level FlightAware
08:11PM -34.7840 141.2060 312° West 413 475 30,000  Level FlightAware
08:12PM -34.7430 141.1530 313° West 413 475 30,000  Level FlightAware
08:13PM -34.6930 141.0870 313° West 412 474 30,000 300 Level FlightAware
08:13PM -34.6519 141.0329 313° West 409 471 30,400  Climbing Aus ATC (RADAR)
08:13PM -34.6500 141.0300 313° West 413 475 30,000  Descending FlightAware
08:14PM -34.6072 140.9739 313° West 406 467 30,400  Climbing Aus ATC (RADAR)
08:14PM -34.6030 140.9680 313° West 413 475 30,000 -660 Descending FlightAware
08:14PM -34.5620 140.9150 313° West 413 475 30,000  Level FlightAware
08:15PM -34.5110 140.8490 313° West 413 475 30,000  Level FlightAware
08:15PM -34.4700 140.7940 312° West 413 475 30,000  Level FlightAware
08:16PM -34.4210 140.7300 313° West 414 476 30,000  Level FlightAware
08:17PM -34.3780 140.6750 313° West 414 476 30,000  Level FlightAware
08:17PM -34.3250 140.6050 313° West 414 476 30,000  Level FlightAware
08:18PM -34.2880 140.5570 313° West 414 476 30,000 720 Level FlightAware
08:18PM -34.2819 140.5502 313° West 414 476 30,400  Climbing Aus ATC (RADAR)
08:18PM -34.2420 140.4990 314° West 414 476 30,000 -360 Descending FlightAware
08:19PM -34.1970 140.4400 313° West 414 476 30,000  Level FlightAware
08:20PM -34.1480 140.3760 313° West 413 475 30,000  Level FlightAware
08:20PM -34.0960 140.3090 313° West 414 476 30,000  Level FlightAware
08:21PM -34.0560 140.2580 313° West 414 476 30,000  Level FlightAware
08:21PM -34.0110 140.2010 314° West 414 476 30,000  Level FlightAware
08:22PM -33.9620 140.1380 313° West 415 478 30,000  Level FlightAware
08:23PM -33.9130 140.0750 313° West 415 478 30,000  Level FlightAware
08:23PM -33.8720 140.0230 314° West 416 479 30,000  Level FlightAware
08:24PM -33.8280 139.9670 313° West 416 479 30,000  Level FlightAware
08:24PM -33.7780 139.9020 313° West 415 478 30,000 300 Level FlightAware
08:25PM -33.7315 139.8451 313° West 415 478 30,400  Climbing Aus ATC (RADAR)
08:25PM -33.7280 139.8390 313° West 415 478 30,000 -780 Descending FlightAware
08:25PM -33.6930 139.7960 313° West 415 478 30,000 720 Level FlightAware
08:25PM -33.6854 139.7862 313° West 415 478 30,400  Climbing Aus ATC (RADAR)
08:26PM -33.6300 139.7150 313° West 415 478 30,000 -360 Descending FlightAware
08:27PM -33.5850 139.6590 314° West 410 472 30,000  Level FlightAware
08:27PM -33.5400 139.6010 313° West 410 472 30,000  Level FlightAware
08:28PM -33.4960 139.5460 314° West 410 472 30,000 300 Level FlightAware
08:28PM -33.4477 139.4863 314° West 416 479 30,400  Climbing Aus ATC (RADAR)
08:29PM -33.4400 139.4760 314° West 415 478 30,000 -600 Descending FlightAware
08:29PM -33.3930 139.4170 314° West 409 471 30,000  Level FlightAware
08:30PM -33.3540 139.3690 314° West 415 478 30,000  Level FlightAware
08:30PM -33.2980 139.3030 315° West 415 478 30,000  Level FlightAware
08:31PM -33.2500 139.2450 315° West 417 480 30,000  Level FlightAware
08:31PM -33.2100 139.1970 315° West 417 480 30,000  Level FlightAware
08:32PM -33.1550 139.1310 315° West 412 474 30,000  Level FlightAware
08:33PM -33.1080 139.0750 315° West 412 474 30,000 300 Level FlightAware
08:33PM -33.0545 139.0126 315° West 419 482 30,400  Climbing Aus ATC (RADAR)
08:33PM -33.0590 139.0160 315° West 419 482 30,000 -720 Descending FlightAware
08:34PM -33.0110 138.9590 315° West 419 482 30,000  Level FlightAware
08:34PM -32.9600 138.8990 315° West 419 482 30,000  Level FlightAware
08:35PM -32.9130 138.8440 316° Northwest 417 480 30,000 240 Level FlightAware
08:36PM -32.8629 138.7856 316° Northwest 416 479 30,300  Climbing Aus ATC (RADAR)
08:36PM -32.8430 138.7610 316° Northwest 410 472 30,000  Descending FlightAware
08:37PM -32.7884 138.6990 316° Northwest 409 471 30,300  Climbing Aus ATC (RADAR)
08:37PM -32.7860 138.6930 316° Northwest 413 475 30,000 -480 Descending FlightAware
08:37PM -32.7340 138.6320 315° West 414 476 30,000  Level FlightAware
08:38PM -32.6860 138.5760 316° Northwest 414 476 30,000 240 Level FlightAware
08:38PM -32.6387 138.5201 316° Northwest 420 483 30,300  Climbing Aus ATC (RADAR)
08:39PM -32.6260 138.5060 316° Northwest 416 479 30,000 -420 Descending FlightAware
08:39PM -32.5780 138.4490 315° West 419 482 30,000  Level FlightAware
08:40PM -32.5250 138.3870 315° West 422 486 30,000  Level FlightAware
08:40PM -32.4780 138.3320 315° West 422 486 30,000  Level FlightAware
08:41PM -32.4360 138.2820 315° West 422 486 30,000  Level FlightAware
08:42PM -32.3940 138.2320 315° West 422 486 30,000  Level FlightAware
08:42PM -32.3520 138.1820 315° West 422 486 30,000  Level FlightAware
08:43PM -32.3090 138.1320 315° West 422 486 30,000  Level FlightAware
08:43PM -32.2670 138.0820 315° West 422 486 30,000  Level FlightAware
08:44PM -32.2250 138.0320 315° West 422 486 30,000  Level FlightAware
08:45PM -32.1830 137.9820 315° West 422 486 30,000  Level FlightAware
08:45PM -32.1430 137.9350 315° West 422 486 30,000  Level FlightAware
08:46PM -32.1000 137.8850 315° West 422 486 30,000 240 Level FlightAware
08:46PM -31.9616 137.7349 315° West 433 498 30,300  Climbing Aus ATC (RADAR)
08:46PM -32.0580 137.8350 315° West 422 486 30,000 -480 Descending FlightAware
08:47PM -32.0160 137.7850 315° West 422 486 30,000  Level FlightAware
08:48PM -31.9740 137.7350 315° West 422 486 30,000  Level FlightAware
08:48PM -31.9310 137.6860 316° Northwest 422 486 30,000 240 Level FlightAware
08:49PM -31.7596 137.5072 316° Northwest 415 478 30,300  Climbing Aus ATC (RADAR)
08:49PM -31.8890 137.6360 316° Northwest 422 486 30,000  Descending FlightAware
08:49PM -31.7116 137.4504 316° Northwest 418 481 30,300  Climbing Aus ATC (RADAR)
08:49PM -31.8470 137.5860 316° Northwest 422 486 30,000  Descending FlightAware
08:50PM -31.6429 137.3710 316° Northwest 417 480 30,300 180 Climbing Aus ATC (RADAR)
08:51PM -31.5943 137.3162 316° Northwest 417 480 30,300  Level Aus ATC (RADAR)
08:51PM -31.5320 137.2457 316° Northwest 417 480 30,300  Level Aus ATC (RADAR)
08:53PM -31.4134 137.1136 316° Northwest 419 482 30,300  Level Aus ATC (RADAR)
08:54PM -31.3441 137.0365 316° Northwest 417 480 30,300  Level Aus ATC (RADAR)
08:54PM -31.2950 136.9831 317° Northwest 417 480 30,300  Level Aus ATC (RADAR)
08:56PM -31.1915 136.8631 315° West 437 503 30,300  Level Aus ATC (RADAR)
08:56PM -31.1282 136.7937 317° Northwest 425 489 30,300 -60 Level Aus ATC (RADAR)
09:01PM -30.7231 136.3670 318° Northwest 30,000 -60 Descending Aus ATC (Calculated)
09:03PM -30.5820 136.2194 318° Northwest  Level FlightAware Approximate
09:04PM -30.4946 136.1284 318° Northwest  Level FlightAware Approximate
09:05PM -30.4071 136.0375 318° Northwest  Level FlightAware Approximate
09:06PM -30.3196 135.9468 318° Northwest  Level FlightAware Approximate
09:06PM -30.2276 135.8516 318° Northwest 30,000  Level Aus ATC (Calculated)
09:08PM -30.0858 135.7056 318° Northwest  Level FlightAware Approximate
09:09PM -29.9981 135.6154 318° Northwest  Level FlightAware Approximate
09:10PM -29.9103 135.5255 318° Northwest  Level FlightAware Approximate
09:11PM -29.8224 135.4357 318° Northwest  Level FlightAware Approximate
09:11PM -29.7507 135.3625 319° Northwest 30,000  Level Aus ATC (Calculated)
09:12PM -29.7345 135.3460 318° Northwest  Level FlightAware Approximate
09:13PM -29.6084 135.2179 319° Northwest  Level FlightAware Approximate
09:14PM -29.5203 135.1286 319° Northwest  Level FlightAware Approximate
09:14PM -29.5016 135.1096 319° Northwest 30,000  Level Aus ATC (Calculated)
09:16PM -29.3385 134.9450 319° Northwest  Level FlightAware Approximate
09:16PM -29.2957 134.9019 319° Northwest 30,000  Level Aus ATC (Calculated)
09:18PM -29.1220 134.7276 319° Northwest  Level FlightAware Approximate
09:18PM -29.1239 134.7295 319° Northwest 30,000  Level Aus ATC (Calculated)
09:19PM -29.0336 134.6392 319° Northwest  Level FlightAware Approximate
09:20PM -28.9574 134.5631 319° Northwest  Level FlightAware Approximate
09:20PM -28.8516 134.4584 319° Northwest 30,000  Level Aus ATC (Calculated)
09:21PM -28.8689 134.4750 319° Northwest  Level FlightAware Approximate
09:22PM -28.9449 134.5506 139° Southeast  Level FlightAware Approximate
09:23PM -29.0336 134.6385 139° Southeast  Level FlightAware Approximate
09:23PM -28.5532 134.1635 319° Northwest 30,000  Level Aus ATC (Calculated)
09:24PM -28.9449 134.5506 319° Northwest  Level FlightAware Approximate
09:25PM -28.6583 134.2670 139° Southeast  Level FlightAware Approximate
09:25PM -28.3514 133.9655 319° Northwest 30,000  Level Aus ATC (Calculated)
09:27PM -28.2631 133.8523 319° Northwest  Level Estimated
09:28PM -28.1733 133.7665 320° Northwest  Level FlightAware Approximate
09:29PM -28.0834 133.6808 320° Northwest  Level FlightAware Approximate
09:30PM -27.9935 133.5953 320° Northwest  Level FlightAware Approximate
09:30PM -27.8646 133.4918 319° Northwest 30,000  Level Aus ATC (Calculated)
09:31PM -27.9035 133.5100 320° Northwest  Level FlightAware Approximate
09:32PM -27.7619 133.3927 319° Northwest  Level FlightAware Approximate
09:33PM -27.6725 133.3066 320° Northwest  Level FlightAware Approximate
09:34PM -27.5832 133.2207 320° Northwest  Level FlightAware Approximate
09:35PM -27.4937 133.1349 320° Northwest  Level FlightAware Approximate
09:35PM -27.3983 133.0436 320° Northwest 30,000  Level Aus ATC (Calculated)
09:36PM -27.4042 133.0493 320° Northwest  Level FlightAware Approximate
09:37PM -27.2938 132.9439 320° Northwest  Level FlightAware Approximate
09:38PM -27.2042 132.8586 320° Northwest  Level FlightAware Approximate
09:39PM -27.1145 132.7733 320° Northwest  Level FlightAware Approximate
09:40PM -27.0248 132.6883 320° Northwest  Level FlightAware Approximate
09:40PM -26.9892 132.6545 320° Northwest 30,000  Level Aus ATC (Calculated)
09:40PM -26.9599 132.6268 320° Northwest 30,000  Level Aus ATC (Calculated)
09:42PM -26.8551 132.5279 320° Northwest  Level FlightAware Approximate
09:42PM -26.7665 132.4448 320° Northwest 30,000  Level Aus ATC (Calculated)
09:43PM -26.9449 132.6127 140° Southeast  Level FlightAware Approximate
09:44PM -26.9089 132.5787 140° Southeast  Level FlightAware Approximate
09:45PM -26.9988 132.6635 140° Southeast  Level FlightAware Approximate
09:46PM -26.9089 132.5787 320° Northwest  Level FlightAware Approximate
09:46PM -26.5900 132.2790 320° Northwest 432 497 30,000  Level FlightAware
09:46PM -26.5290 132.2220 320° Northwest 432 497 30,000  Level FlightAware
09:47PM -26.4740 132.1710 320° Northwest 437 503 30,000  Level FlightAware
09:47PM -26.3280 132.0353 140° Southeast 30,000  Level Aus ATC (Calculated)
09:47PM -26.4160 132.1170 320° Northwest 443 510 30,000  Level FlightAware
09:48PM -26.3660 132.0700 320° Northwest 445 512 30,000  Level FlightAware
09:48PM -26.3120 132.0200 320° Northwest 447 514 30,000  Level FlightAware
09:49PM -26.2550 131.9670 320° Northwest 448 516 30,000  Level FlightAware
09:50PM -26.2030 131.9190 320° Northwest 450 518 30,000  Level FlightAware
09:50PM -26.1410 131.8610 320° Northwest 450 518 30,000  Level FlightAware
09:51PM -26.0880 131.8120 320° Northwest 451 519 30,000  Level FlightAware
09:51PM -26.0260 131.7550 320° Northwest 452 520 30,000  Level FlightAware
09:52PM -25.8333 131.5783 141° Southeast 30,000  Level Aus ATC (Calculated)
09:52PM -25.9740 131.7070 320° Northwest 452 520 30,000  Level FlightAware
09:53PM -25.9170 131.6550 320° Northwest 452 520 30,000  Level FlightAware
09:53PM -25.8580 131.6010 321° Northwest 452 520 30,000  Level FlightAware
09:54PM -25.8020 131.5480 320° Northwest 452 520 30,000  Level FlightAware
09:54PM -25.6130 131.3764 141° Southeast 30,000  Level Aus ATC (Calculated)
09:54PM -25.7340 131.4870 321° Northwest 451 519 30,000  Level FlightAware
09:55PM -25.6700 131.4210 321° Northwest 445 512 30,000  Level FlightAware
09:56PM -25.6250 131.3590 309° West 444 511 30,000  Level FlightAware
09:56PM -25.5820 131.2990 308° West 443 510 30,000  Level FlightAware
09:57PM -25.3372 131.1250 154° Southeast 30,000  Level Aus ATC (Calculated)
09:57PM -25.5400 131.2350 306° West 440 506 30,000  Level FlightAware
09:58PM -25.4970 131.1670 305° West 441 507 30,000  Level FlightAware
09:58PM -25.4540 131.1020 305° West 441 507 30,000  Level FlightAware
09:59PM -25.4190 131.0470 305° West 441 507 30,000  Level FlightAware
09:59PM -25.3320 131.0320 351° North 463 533 30,000  Level FlightAware
10:00PM -25.2660 130.9900 330° Northwest 447 514 30,000  Level FlightAware
10:00PM -25.2150 130.9350 316° Northwest 430 495 30,000  Level FlightAware
10:01PM -24.9903 130.7361 149° Southeast 30,000  Level Aus ATC (Calculated)
10:01PM -25.1730 130.8570 316° Northwest 426 490 30,000  Level FlightAware
10:02PM -25.1660 130.7980 277° West 418 481 30,000  Level FlightAware
10:02PM -25.1650 130.7350 271° West 416 479 30,000  Level FlightAware
10:02PM -24.8694 130.5773 164° South 30,000  Level Aus ATC (Calculated)
10:03PM -25.1650 130.6700 270° West 416 479 30,000  Level FlightAware
10:03PM -25.0910 130.6450 270° West 448 516 30,000  Level FlightAware
10:03PM -25.0660 130.6410 352° North 457 526 30,000  Level FlightAware
10:04PM -25.0130 130.6440 North 465 535 30,000  Level FlightAware
10:04PM -24.7482 130.4189 138° Southeast 30,000  Level Aus ATC (Calculated)
10:04PM -24.9660 130.6320 347° North 448 516 30,000  Level FlightAware
10:04PM -24.9380 130.6130 328° Northwest 441 507 30,000  Level FlightAware
10:05PM -24.6876 130.3398 134° Southeast 30,000  Level Aus ATC (Calculated)
10:05PM -24.8850 130.5660 328° Northwest 438 504 30,000  Level FlightAware
10:06PM -24.8380 130.5220 320° Northwest 438 504 30,000  Level FlightAware
10:06PM -24.7900 130.4780 320° Northwest 438 504 30,000  Level FlightAware
10:07PM -24.7410 130.4330 320° Northwest 438 504 30,000  Level FlightAware
10:07PM -24.6940 130.3890 320° Northwest 438 504 30,000  Level FlightAware
10:08PM -24.6460 130.3450 320° Northwest 438 504 30,000  Level FlightAware
10:10PM -24.2620 129.7882 310° West 30,000  Level Aus ATC (Calculated)
10:10PM -24.2010 129.7097 310° West 30,000  Level Aus ATC (Calculated)
10:12PM -24.1230 129.6093 310° West  Level FlightAware Approximate
10:13PM -24.0474 129.5123 310° West  Level FlightAware Approximate
10:14PM -23.9717 129.4154 311° West  Level FlightAware Approximate
10:15PM -23.8959 129.3187 311° West  Level FlightAware Approximate
10:15PM -23.8344 129.2402 311° West 30,000  Level Aus ATC (Calculated)
10:17PM -23.6978 129.0665 311° West  Level FlightAware Approximate
10:18PM -23.6219 128.9701 311° West  Level FlightAware Approximate
10:19PM -23.5459 128.8739 311° West  Level FlightAware Approximate
10:20PM -23.4698 128.7777 311° West  Level FlightAware Approximate
10:20PM -23.4663 128.7733 311° West 30,000  Level Aus ATC (Calculated)
10:22PM -23.3280 128.5990 311° West  Level FlightAware Approximate
10:23PM -23.2518 128.5032 311° West  Level FlightAware Approximate
10:23PM -23.1846 128.4190 131° Southeast 30,000  Level Aus ATC (Calculated)
10:25PM -23.3091 128.5750 131° Southeast  Level FlightAware Approximate
10:26PM -23.2321 128.4785 311° West  Level FlightAware Approximate
10:26PM -22.9350 128.1078 131° Southeast 30,000  Level Aus ATC (Calculated)
10:28PM -23.0593 128.2626 131° Southeast  Level FlightAware Approximate
10:29PM -23.1361 128.3584 131° Southeast  Level FlightAware Approximate
10:30PM -23.2129 128.4544 131° Southeast  Level FlightAware Approximate
10:31PM -23.2895 128.5505 131° Southeast  Level FlightAware Approximate
10:31PM -22.5417 127.6211 311° West 30,000  Level Aus ATC (Calculated)
10:31PM -22.4700 127.5329 311° West 30,000  Level Aus ATC (Calculated)
10:33PM -22.3914 127.4364 311° West  Level Estimated
10:34PM -22.3141 127.3416 311° West  Level FlightAware Approximate
10:35PM -22.2367 127.2468 311° West  Level FlightAware Approximate
10:36PM -22.1592 127.1522 311° West  Level FlightAware Approximate
10:36PM -22.1468 127.1371 312° West 30,000  Level Aus ATC (Calculated)
10:38PM -22.0073 126.9671 312° West  Level FlightAware Approximate
10:39PM -21.9296 126.8728 312° West  Level FlightAware Approximate
10:40PM -21.8520 126.7786 312° West  Level FlightAware Approximate
10:41PM -21.7743 126.6845 312° West  Level FlightAware Approximate
10:41PM -21.7144 126.6122 312° West 30,000  Level Aus ATC (Calculated)
10:43PM -21.5730 126.4416 312° West  Level FlightAware Approximate
10:44PM -21.4951 126.3479 312° West  Level FlightAware Approximate
10:44PM -21.4976 126.3509 312° West 30,000  Level Aus ATC (Calculated)
10:46PM -21.3559 126.1808 312° West  Level FlightAware Approximate
10:47PM -21.2779 126.0874 312° West  Level FlightAware Approximate
10:47PM -21.1716 125.9604 132° Southeast 30,000  Level Aus ATC (Calculated)
10:48PM -21.1998 125.9940 312° West  Level FlightAware Approximate
10:49PM -21.0830 125.8547 312° West  Level FlightAware Approximate
10:49PM -21.0627 125.8306 312° West 30,000  Level Aus ATC (Calculated)
10:51PM -20.9192 125.6600 312° West  Level FlightAware Approximate
10:52PM -20.8409 125.5671 312° West  Level FlightAware Approximate
10:52PM -20.7938 125.5106 312° West 27,000  Level Aus ATC (Calculated)
10:53PM -20.7320 125.4371 312° West 27,000  Level Aus ATC (Calculated)
10:54PM -20.6082 125.2902 132° Southeast 27,000  Level Aus ATC (Calculated)
10:56PM -20.7269 125.4310 132° Southeast  Level FlightAware Approximate
10:57PM -20.8051 125.5240 132° Southeast  Level FlightAware Approximate
10:57PM -20.3603 124.9971 132° Southeast 27,000  Level Aus ATC (Calculated)
10:58PM -20.8832 125.6171 132° Southeast  Level FlightAware Approximate
10:59PM -20.4923 125.1529 132° Southeast  Level FlightAware Approximate
10:59PM -20.1741 124.7779 132° Southeast 27,000  Level Aus ATC (Calculated)
11:01PM -20.2997 124.9257 132° Southeast  Level FlightAware Approximate
11:01PM -19.9875 124.5593 132° Southeast 27,000  Level Aus ATC (Calculated)
11:02PM -20.3781 125.0182 132° Southeast  Level FlightAware Approximate
11:03PM -20.0898 124.6790 132° Southeast  Level FlightAware Approximate
11:04PM -20.1683 124.7712 132° Southeast  Level FlightAware Approximate
11:04PM -19.7384 124.2685 313° West 27,000  Level Aus ATC (Calculated)
11:06PM -19.6117 124.1223 312° West  Level Estimated
11:06PM -19.6136 124.1235 312° West 27,000  Level Aus ATC (Calculated)
11:07PM -19.5347 124.0319 312° West  Level FlightAware Approximate
11:08PM -19.4557 123.9404 312° West  Level FlightAware Approximate
11:09PM -19.3767 123.8490 312° West  Level FlightAware Approximate
11:09PM -19.3012 123.7618 313° West 27,000  Level Aus ATC (Calculated)
11:11PM -19.1733 123.6144 313° West  Level FlightAware Approximate
11:12PM -19.0942 123.5233 313° West  Level FlightAware Approximate
11:13PM -19.0150 123.4323 313° West  Level FlightAware Approximate
11:14PM -18.9357 123.3414 313° West  Level FlightAware Approximate
11:14PM -18.8644 123.2609 133° Southeast 300  Level Aus ATC (Calculated)
11:16PM -18.9711 123.3811 133° Southeast  Level FlightAware Approximate
11:17PM -18.8911 123.2909 313° West  Level FlightAware Approximate
11:17PM -18.6813 123.0549 313° West 300  Level Aus ATC (Calculated)
11:18PM -18.6201 122.9863 133° Southeast 300  Level Aus ATC (Calculated)
11:19PM -18.8107 123.2004 133° Southeast  Level FlightAware Approximate
11:20PM -18.7363 123.1167 133° Southeast  Level FlightAware Approximate
11:21PM -18.8163 123.2067 133° Southeast  Level FlightAware Approximate
11:21PM -18.4367 122.7809 360° North 300  Level Aus ATC (Calculated)
11:21PM -18.4367 122.7809 133° Southeast 300  Level Aus ATC (Calculated)
11:23PM -18.5396 122.8961 133° Southeast  Level FlightAware Approximate
11:24PM -18.6197 122.9859 133° Southeast  Level FlightAware Approximate
11:24PM -18.2530 122.5760 133° Southeast 300  Level Aus ATC (Calculated)
11:25PM -18.6999 123.0758 133° Southeast  Level FlightAware Approximate
11:26PM -18.3707 122.7073 133° Southeast  Level FlightAware Approximate
11:27PM -18.4510 122.7969 133° Southeast  Level FlightAware Approximate
11:27PM -18.0690 122.3714 360° North 300  Level Aus ATC (Calculated)
11:27PM -18.0690 122.3714 360° North 300  Level Aus ATC (Calculated)
11:27PM -18.0690 122.3714 133° Southeast 300  Level Aus ATC (Calculated)
11:29PM -18.1870 122.5025 133° Southeast  Level FlightAware Approximate
11:30PM -18.2673 122.5919 133° Southeast  Level FlightAware Approximate
11:31PM -17.9447 122.2317 313° West  Level Estimated
11:32PM -17.9447 122.2317 115° Southeast  Level Estimated
11:33PM -17.9447 122.2317 115° Southeast  Level Estimated
11:34PM -17.9447 122.2317 115° Southeast  Level Estimated
11:35PM -17.9447 122.2317 115° Southeast  Level Estimated
11:36PM -17.9447 122.2317 115° Southeast  Level Estimated
11:37PM -17.9496 122.2277 246° West  Level FlightAware Approximate
11:38PM -17.9447 122.2317 246° West  Level Estimated